Thunder radar more information blitzortung!


Radar de pluja more information rain snow radar


Visita la nostra xarxa de llocs de meteo:

Template documentation
and downloads

And another site



No particular awareness of the weather is required.    There are no Weather-warnings

Pagina Historial Weather Underground text

Diari Resum Agost 13, 2017 Unitats:  Tant    Imperial   Mètric
« Previous Dia
SegĂźent Dia »
Diari Setmana Mensual Anual Personalitzada
  Maxima: Minima: Media:
Temperatura: 87.6 °F /  30.9 °C 60.6 °F /  15.9 °C 76.6 °F /  24.8 °C
Punt de rosada: 62.2 °F /  16.8 °C 51.3 °F /  10.7 °C 57.9 °F /  14.4 °C
Humitat: 80 % 39 % 54 %
Wind Speed: 15 mph /  24.1 km/h - 4 mph /  6.4 km/h
RĂ fegues de vent: 15 mph /  24.1 km/h - -
Vent:- - SSW
Pression baro: 30.1 in /  1019.9 hPa 30 in /  1014.8 hPa -
Precipitacions: 0 in /  0.0 mm    
Historical Graphs
 
 
Dades de taula per Agost 13, 2017
Temps Temperatura Punt de rosada Pression baro Vent Wind Speed RĂ fegues de vent Humitat Rainfall Rate (Hourly)
00:01 68.7 °F /  20.4 °C 53.8 °F /  12.1 °C 30.1 in /  1019.9 hPa Calm     59 % 0 in /  0.0 mm
00:05 63.3 °F /  17.4 °C 53.4 °F /  11.9 °C 30.1 in /  1017.8 hPa WNW 1 mph /  1.6 km/h 1 mph /  1.6 km/h 70 % 0 in /  0.0 mm
00:06 68.7 °F /  20.4 °C 53.8 °F /  12.1 °C 30.1 in /  1019.9 hPa Calm     59 % 0 in /  0.0 mm
00:11 68.7 °F /  20.4 °C 53.8 °F /  12.1 °C 30.1 in /  1019.9 hPa Calm     59 % 0 in /  0.0 mm
00:15 63.3 °F /  17.4 °C 53.4 °F /  11.9 °C 30.1 in /  1017.8 hPa Calm   1 mph /  1.6 km/h 70 % 0 in /  0.0 mm
00:16 68.7 °F /  20.4 °C 54.3 °F /  12.4 °C 30.1 in /  1019.9 hPa Calm     60 % 0 in /  0.0 mm
00:21 68.5 °F /  20.3 °C 53.6 °F /  12.0 °C 30.1 in /  1019.9 hPa WNW 0.9 mph /  1.4 km/h   59 % 0 in /  0.0 mm
00:25 62.8 °F /  17.1 °C 52.5 °F /  11.4 °C 30.1 in /  1017.8 hPa Calm   1 mph /  1.6 km/h 69 % 0 in /  0.0 mm
00:26 68.5 °F /  20.3 °C 54.1 °F /  12.3 °C 30.1 in /  1019.9 hPa Calm     60 % 0 in /  0.0 mm
00:31 68.5 °F /  20.3 °C 54.1 °F /  12.3 °C 30.1 in /  1019.9 hPa Calm     60 % 0 in /  0.0 mm
00:35 62.6 °F /  17.0 °C 52.7 °F /  11.5 °C 30.1 in /  1017.8 hPa Calm   1 mph /  1.6 km/h 70 % 0 in /  0.0 mm
00:36 68.4 °F /  20.2 °C 54 °F /  12.2 °C 30.1 in /  1019.9 hPa Calm     60 % 0 in /  0.0 mm
00:45 62.1 °F /  16.7 °C 52.5 °F /  11.4 °C 30.1 in /  1017.8 hPa Calm     71 % 0 in /  0.0 mm
00:55 61.9 °F /  16.6 °C 52 °F /  11.1 °C 30 in /  1016.8 hPa NE 1 mph /  1.6 km/h 1 mph /  1.6 km/h 70 % 0 in /  0.0 mm
01:05 61.7 °F /  16.5 °C 51.8 °F /  11.0 °C 30.1 in /  1017.8 hPa Calm   1 mph /  1.6 km/h 70 % 0 in /  0.0 mm
01:15 61.7 °F /  16.5 °C 52.2 °F /  11.2 °C 30.1 in /  1017.8 hPa Calm   1 mph /  1.6 km/h 71 % 0 in /  0.0 mm
01:25 61.7 °F /  16.5 °C 52.2 °F /  11.2 °C 30 in /  1016.8 hPa Calm     71 % 0 in /  0.0 mm
01:35 61.5 °F /  16.4 °C 52 °F /  11.1 °C 30.1 in /  1017.8 hPa Calm   1 mph /  1.6 km/h 71 % 0 in /  0.0 mm
01:45 61.2 °F /  16.2 °C 51.3 °F /  10.7 °C 30.1 in /  1017.8 hPa WSW 1 mph /  1.6 km/h 2 mph /  3.2 km/h 70 % 0 in /  0.0 mm
01:55 60.8 °F /  16.0 °C 51.3 °F /  10.7 °C 30.1 in /  1017.8 hPa Calm   1 mph /  1.6 km/h 71 % 0 in /  0.0 mm
02:05 60.8 °F /  16.0 °C 51.3 °F /  10.7 °C 30.1 in /  1017.8 hPa WSW 2 mph /  3.2 km/h 2 mph /  3.2 km/h 71 % 0 in /  0.0 mm
02:15 60.8 °F /  16.0 °C 51.6 °F /  10.9 °C 30.1 in /  1017.8 hPa Calm   1 mph /  1.6 km/h 72 % 0 in /  0.0 mm
02:25 60.6 °F /  15.9 °C 51.4 °F /  10.8 °C 30.1 in /  1017.8 hPa Calm     72 % 0 in /  0.0 mm
02:35 60.8 °F /  16.0 °C 51.6 °F /  10.9 °C 30.1 in /  1017.8 hPa WSW 1 mph /  1.6 km/h 2 mph /  3.2 km/h 72 % 0 in /  0.0 mm
02:45 61.7 °F /  16.5 °C 52.5 °F /  11.4 °C 30.1 in /  1017.8 hPa Calm   1 mph /  1.6 km/h 72 % 0 in /  0.0 mm
02:55 62.4 °F /  16.9 °C 52.9 °F /  11.6 °C 30.1 in /  1017.8 hPa SSW 1 mph /  1.6 km/h 2 mph /  3.2 km/h 71 % 0 in /  0.0 mm
03:05 64.2 °F /  17.9 °C 53.8 °F /  12.1 °C 30.1 in /  1018.8 hPa Calm     69 % 0 in /  0.0 mm
03:15 64 °F /  17.8 °C 53.2 °F /  11.8 °C 30.1 in /  1018.8 hPa SW 1 mph /  1.6 km/h 2 mph /  3.2 km/h 68 % 0 in /  0.0 mm
03:25 63.5 °F /  17.5 °C 52.3 °F /  11.3 °C 30.1 in /  1017.8 hPa SW 1 mph /  1.6 km/h 2 mph /  3.2 km/h 67 % 0 in /  0.0 mm
03:35 64.4 °F /  18.0 °C 53.6 °F /  12.0 °C 30.1 in /  1018.8 hPa SW 1 mph /  1.6 km/h 2 mph /  3.2 km/h 68 % 0 in /  0.0 mm
03:45 64.9 °F /  18.3 °C 53.8 °F /  12.1 °C 30.1 in /  1018.8 hPa SW 1 mph /  1.6 km/h 2 mph /  3.2 km/h 67 % 0 in /  0.0 mm
03:55 66.2 °F /  19.0 °C 54.1 °F /  12.3 °C 30.1 in /  1018.8 hPa SW 2 mph /  3.2 km/h 2 mph /  3.2 km/h 65 % 0 in /  0.0 mm
04:05 66.9 °F /  19.4 °C 54.9 °F /  12.7 °C 30.1 in /  1018.8 hPa SW 2 mph /  3.2 km/h 2 mph /  3.2 km/h 65 % 0 in /  0.0 mm
04:15 68.7 °F /  20.4 °C 55.9 °F /  13.3 °C 30.1 in /  1018.8 hPa SSW 1 mph /  1.6 km/h 1 mph /  1.6 km/h 64 % 0 in /  0.0 mm
04:25 70.2 °F /  21.2 °C 56.5 °F /  13.6 °C 30.1 in /  1018.8 hPa South 1 mph /  1.6 km/h 2 mph /  3.2 km/h 62 % 0 in /  0.0 mm
04:35 70.5 °F /  21.4 °C 56.5 °F /  13.6 °C 30.1 in /  1018.8 hPa SW 1 mph /  1.6 km/h 2 mph /  3.2 km/h 61 % 0 in /  0.0 mm
04:45 72.1 °F /  22.3 °C 57 °F /  13.9 °C 30.1 in /  1018.8 hPa NW 1 mph /  1.6 km/h 2 mph /  3.2 km/h 59 % 0 in /  0.0 mm
04:55 72.9 °F /  22.7 °C 57.2 °F /  14.0 °C 30.1 in /  1018.8 hPa NNE 2 mph /  3.2 km/h 5 mph /  8.0 km/h 58 % 0 in /  0.0 mm
05:05 73 °F /  22.8 °C 56.8 °F /  13.8 °C 30.1 in /  1018.8 hPa ENE 2 mph /  3.2 km/h 3 mph /  4.8 km/h 57 % 0 in /  0.0 mm
05:15 73.9 °F /  23.3 °C 57.7 °F /  14.3 °C 30.1 in /  1018.8 hPa Calm   3 mph /  4.8 km/h 57 % 0 in /  0.0 mm
05:25 75.2 °F /  24.0 °C 57.9 °F /  14.4 °C 30.1 in /  1018.8 hPa ESE 1 mph /  1.6 km/h 2 mph /  3.2 km/h 55 % 0 in /  0.0 mm
05:35 76.3 °F /  24.6 °C 58.5 °F /  14.7 °C 30.1 in /  1018.8 hPa ESE 1 mph /  1.6 km/h 3 mph /  4.8 km/h 54 % 0 in /  0.0 mm
05:45 77.4 °F /  25.2 °C 58.5 °F /  14.7 °C 30.1 in /  1018.8 hPa NE 1 mph /  1.6 km/h 3 mph /  4.8 km/h 52 % 0 in /  0.0 mm
10:46 76.5 °F /  24.7 °C 57.6 °F /  14.2 °C 30.1 in /  1018.8 hPa North 3.5 mph /  5.6 km/h 3.5 mph /  5.6 km/h 52 % 0 in /  0.0 mm
10:47 76.5 °F /  24.7 °C 57.6 °F /  14.2 °C 30.1 in /  1018.8 hPa North 3.5 mph /  5.6 km/h 3.5 mph /  5.6 km/h 52 % 0 in /  0.0 mm
10:52 76.8 °F /  24.9 °C 57.4 °F /  14.1 °C 30.1 in /  1018.8 hPa ESE 2.4 mph /  3.9 km/h 2.4 mph /  3.9 km/h 51 % 0 in /  0.0 mm
10:57 77.7 °F /  25.4 °C 57.6 °F /  14.2 °C 30.1 in /  1018.8 hPa WSW 3.3 mph /  5.3 km/h 3.3 mph /  5.3 km/h 50 % 0 in /  0.0 mm
11:02 77.7 °F /  25.4 °C 57.6 °F /  14.2 °C 30.1 in /  1018.8 hPa SSW 2.3 mph /  3.7 km/h 2.3 mph /  3.7 km/h 50 % 0 in /  0.0 mm
11:07 78.8 °F /  26.0 °C 58.6 °F /  14.8 °C 30.1 in /  1018.8 hPa ENE 2.3 mph /  3.7 km/h 2.3 mph /  3.7 km/h 50 % 0 in /  0.0 mm
11:12 78.1 °F /  25.6 °C 56.8 °F /  13.8 °C 30.1 in /  1018.8 hPa ESE 3.8 mph /  6.1 km/h 3.8 mph /  6.1 km/h 48 % 0 in /  0.0 mm
11:17 78.6 °F /  25.9 °C 57.9 °F /  14.4 °C 30.1 in /  1018.8 hPa ENE 4.6 mph /  7.4 km/h 4.6 mph /  7.4 km/h 49 % 0 in /  0.0 mm
11:22 78.8 °F /  26.0 °C 57.9 °F /  14.4 °C 30.1 in /  1018.8 hPa East 2.4 mph /  3.9 km/h 2.4 mph /  3.9 km/h 49 % 0 in /  0.0 mm
11:27 80.1 °F /  26.7 °C 59.2 °F /  15.1 °C 30.1 in /  1018.8 hPa WSW 2.3 mph /  3.7 km/h 2.3 mph /  3.7 km/h 49 % 0 in /  0.0 mm
11:32 80.2 °F /  26.8 °C 58.8 °F /  14.9 °C 30.1 in /  1018.8 hPa East 2.4 mph /  3.9 km/h 2.4 mph /  3.9 km/h 48 % 0 in /  0.0 mm
11:37 80.8 °F /  27.1 °C 58.6 °F /  14.8 °C 30.1 in /  1018.8 hPa SSE 1.2 mph /  1.9 km/h 1.2 mph /  1.9 km/h 47 % 0 in /  0.0 mm
11:42 81.9 °F /  27.7 °C 58.5 °F /  14.7 °C 30.1 in /  1018.8 hPa SSE 3.5 mph /  5.6 km/h 3.5 mph /  5.6 km/h 45 % 0 in /  0.0 mm
11:47 82.2 °F /  27.9 °C 59.4 °F /  15.2 °C 30.1 in /  1018.8 hPa SE 2.3 mph /  3.7 km/h 2.3 mph /  3.7 km/h 46 % 0 in /  0.0 mm
11:52 82.6 °F /  28.1 °C 59.7 °F /  15.4 °C 30.1 in /  1018.8 hPa ESE 2.6 mph /  4.2 km/h 2.6 mph /  4.2 km/h 46 % 0 in /  0.0 mm
11:57 82.2 °F /  27.9 °C 58.8 °F /  14.9 °C 30.1 in /  1018.8 hPa SE 3.5 mph /  5.6 km/h 3.5 mph /  5.6 km/h 45 % 0 in /  0.0 mm
12:02 81.3 °F /  27.4 °C 58.6 °F /  14.8 °C 30.1 in /  1018.8 hPa WSW 3.5 mph /  5.6 km/h 3.5 mph /  5.6 km/h 46 % 0 in /  0.0 mm
12:07 81.5 °F /  27.5 °C 58.1 °F /  14.5 °C 30.1 in /  1018.8 hPa SW 4.6 mph /  7.4 km/h 4.6 mph /  7.4 km/h 45 % 0 in /  0.0 mm
12:12 82.6 °F /  28.1 °C 59.2 °F /  15.1 °C 30.1 in /  1018.8 hPa WSW 4.3 mph /  6.9 km/h 4.3 mph /  6.9 km/h 45 % 0 in /  0.0 mm
12:17 82.9 °F /  28.3 °C 59.4 °F /  15.2 °C 30.1 in /  1018.8 hPa East 4.6 mph /  7.4 km/h 4.6 mph /  7.4 km/h 45 % 0 in /  0.0 mm
12:22 82.2 °F /  27.9 °C 58.1 °F /  14.5 °C 30.1 in /  1018.8 hPa East 3.5 mph /  5.6 km/h 3.6 mph /  5.8 km/h 44 % 0 in /  0.0 mm
12:27 82.9 °F /  28.3 °C 59.4 °F /  15.2 °C 30.1 in /  1018.8 hPa ESE 3.5 mph /  5.6 km/h 3.5 mph /  5.6 km/h 45 % 0 in /  0.0 mm
12:32 82.8 °F /  28.2 °C 59.4 °F /  15.2 °C 30.1 in /  1018.8 hPa West 4.6 mph /  7.4 km/h 4.6 mph /  7.4 km/h 45 % 0 in /  0.0 mm
12:37 83.3 °F /  28.5 °C 59.7 °F /  15.4 °C 30.1 in /  1018.8 hPa WSW 2.3 mph /  3.7 km/h 2.4 mph /  3.9 km/h 45 % 0 in /  0.0 mm
12:42 84.9 °F /  29.4 °C 59.9 °F /  15.5 °C 30.1 in /  1018.8 hPa South 3.5 mph /  5.6 km/h 3.5 mph /  5.6 km/h 43 % 0 in /  0.0 mm
12:47 84 °F /  28.9 °C 60.4 °F /  15.8 °C 30.1 in /  1017.8 hPa ESE 4.6 mph /  7.4 km/h 4.6 mph /  7.4 km/h 45 % 0 in /  0.0 mm
12:52 84.6 °F /  29.2 °C 60.3 °F /  15.7 °C 30.1 in /  1017.8 hPa South 3.3 mph /  5.3 km/h 3.3 mph /  5.3 km/h 44 % 0 in /  0.0 mm
12:57 84.6 °F /  29.2 °C 61 °F /  16.1 °C 30.1 in /  1017.8 hPa ESE 6.9 mph /  11.1 km/h 6.9 mph /  11.1 km/h 45 % 0 in /  0.0 mm
13:02 82.8 °F /  28.2 °C 59.9 °F /  15.5 °C 30 in /  1016.8 hPa ESE 5.8 mph /  9.3 km/h 5.8 mph /  9.3 km/h 46 % 0 in /  0.0 mm
13:07 83.1 °F /  28.4 °C 60.8 °F /  16.0 °C 30 in /  1016.8 hPa ENE 5.8 mph /  9.3 km/h 5.8 mph /  9.3 km/h 47 % 0 in /  0.0 mm
13:12 82 °F /  27.8 °C 59.7 °F /  15.4 °C 30 in /  1016.8 hPa ENE 9.2 mph /  14.8 km/h 9.2 mph /  14.8 km/h 47 % 0 in /  0.0 mm
13:17 83.3 °F /  28.5 °C 61.5 °F /  16.4 °C 30.1 in /  1017.8 hPa ESE 6.2 mph /  10.0 km/h 6.2 mph /  10.0 km/h 48 % 0 in /  0.0 mm
13:22 82.9 °F /  28.3 °C 61.2 °F /  16.2 °C 30.1 in /  1017.8 hPa East 6.9 mph /  11.1 km/h 7.1 mph /  11.4 km/h 48 % 0 in /  0.0 mm
13:27 82.2 °F /  27.9 °C 61.2 °F /  16.2 °C 30.1 in /  1017.8 hPa SSE 8.1 mph /  13.0 km/h 8.1 mph /  13.0 km/h 49 % 0 in /  0.0 mm
13:32 81.7 °F /  27.6 °C 61.2 °F /  16.2 °C 30.1 in /  1017.8 hPa ESE 6.9 mph /  11.1 km/h 6.9 mph /  11.1 km/h 50 % 0 in /  0.0 mm
13:37 81.1 °F /  27.3 °C 60.6 °F /  15.9 °C 30.1 in /  1017.8 hPa East 8.1 mph /  13.0 km/h 8.1 mph /  13.0 km/h 50 % 0 in /  0.0 mm
13:42 80.8 °F /  27.1 °C 61 °F /  16.1 °C 30.1 in /  1017.8 hPa ESE 9.2 mph /  14.8 km/h 9.2 mph /  14.8 km/h 51 % 0 in /  0.0 mm
13:47 80.8 °F /  27.1 °C 61 °F /  16.1 °C 30 in /  1016.8 hPa ESE 8.1 mph /  13.0 km/h 8.1 mph /  13.0 km/h 51 % 0 in /  0.0 mm
13:52 81.9 °F /  27.7 °C 62.1 °F /  16.7 °C 30 in /  1016.8 hPa East 6.9 mph /  11.1 km/h 6.9 mph /  11.1 km/h 51 % 0 in /  0.0 mm
13:57 81.9 °F /  27.7 °C 62.1 °F /  16.7 °C 30 in /  1016.8 hPa ESE 15 mph /  24.1 km/h 15 mph /  24.1 km/h 51 % 0 in /  0.0 mm
14:02 81.1 °F /  27.3 °C 60.6 °F /  15.9 °C 30.1 in /  1017.8 hPa ESE 10.4 mph /  16.7 km/h 10.4 mph /  16.7 km/h 50 % 0 in /  0.0 mm
14:07 81.3 °F /  27.4 °C 61.5 °F /  16.4 °C 30.1 in /  1017.8 hPa ENE 6 mph /  9.7 km/h 6 mph /  9.7 km/h 51 % 0 in /  0.0 mm
14:12 81.3 °F /  27.4 °C 61.5 °F /  16.4 °C 30.1 in /  1017.8 hPa ESE 8.1 mph /  13.0 km/h 8.1 mph /  13.0 km/h 51 % 0 in /  0.0 mm
14:17 81 °F /  27.2 °C 61.2 °F /  16.2 °C 30.1 in /  1017.8 hPa NNE 8.1 mph /  13.0 km/h 8.1 mph /  13.0 km/h 51 % 0 in /  0.0 mm
14:22 80.8 °F /  27.1 °C 61 °F /  16.1 °C 30.1 in /  1017.8 hPa ESE 9.2 mph /  14.8 km/h 9.2 mph /  14.8 km/h 51 % 0 in /  0.0 mm
14:27 81 °F /  27.2 °C 61.2 °F /  16.2 °C 30.1 in /  1017.8 hPa SE 6.2 mph /  10.0 km/h 6.2 mph /  10.0 km/h 51 % 0 in /  0.0 mm
14:32 80.8 °F /  27.1 °C 61 °F /  16.1 °C 30.1 in /  1017.8 hPa East 5.8 mph /  9.3 km/h 5.8 mph /  9.3 km/h 51 % 0 in /  0.0 mm
14:37 81.7 °F /  27.6 °C 61.9 °F /  16.6 °C 30.1 in /  1017.8 hPa ESE 10.4 mph /  16.7 km/h 10.4 mph /  16.7 km/h 51 % 0 in /  0.0 mm
14:42 82.8 °F /  28.2 °C 62.2 °F /  16.8 °C 30.1 in /  1017.8 hPa SE 3.5 mph /  5.6 km/h 3.5 mph /  5.6 km/h 50 % 0 in /  0.0 mm
14:47 85.1 °F /  29.5 °C 62.1 °F /  16.7 °C 30.1 in /  1017.8 hPa SSE 4.6 mph /  7.4 km/h 4.6 mph /  7.4 km/h 46 % 0 in /  0.0 mm
14:52 85.6 °F /  29.8 °C 61.9 °F /  16.6 °C 30.1 in /  1017.8 hPa SW 8.1 mph /  13.0 km/h 8.1 mph /  13.0 km/h 45 % 0 in /  0.0 mm
14:57 85.6 °F /  29.8 °C 61.2 °F /  16.2 °C 30.1 in /  1017.8 hPa SW 12.7 mph /  20.4 km/h 12.7 mph /  20.4 km/h 44 % 0 in /  0.0 mm
15:02 86 °F /  30.0 °C 61 °F /  16.1 °C 30.1 in /  1017.8 hPa SW 10.4 mph /  16.7 km/h 10.4 mph /  16.7 km/h 43 % 0 in /  0.0 mm
15:07 85.6 °F /  29.8 °C 59.9 °F /  15.5 °C 30.1 in /  1017.8 hPa SW 4.9 mph /  7.9 km/h 4.9 mph /  7.9 km/h 42 % 0 in /  0.0 mm
15:12 87.1 °F /  30.6 °C 60.4 °F /  15.8 °C 30.1 in /  1017.8 hPa SW 3.5 mph /  5.6 km/h 3.5 mph /  5.6 km/h 41 % 0 in /  0.0 mm
15:17 86.2 °F /  30.1 °C 59.7 °F /  15.4 °C 30.1 in /  1017.8 hPa WSW 9.2 mph /  14.8 km/h 9.2 mph /  14.8 km/h 41 % 0 in /  0.0 mm
15:22 86.2 °F /  30.1 °C 59 °F /  15.0 °C 30.1 in /  1017.8 hPa SW 4.6 mph /  7.4 km/h 4.6 mph /  7.4 km/h 40 % 0 in /  0.0 mm
15:27 85.6 °F /  29.8 °C 58.5 °F /  14.7 °C 30.1 in /  1017.8 hPa SSW 9.2 mph /  14.8 km/h 9.2 mph /  14.8 km/h 40 % 0 in /  0.0 mm
15:32 85.8 °F /  29.9 °C 58.6 °F /  14.8 °C 30 in /  1016.8 hPa WSW 5.8 mph /  9.3 km/h 5.8 mph /  9.3 km/h 40 % 0 in /  0.0 mm
15:37 87.3 °F /  30.7 °C 60.1 °F /  15.6 °C 30 in /  1016.8 hPa SE 2.6 mph /  4.2 km/h 2.6 mph /  4.2 km/h 40 % 0 in /  0.0 mm
15:42 87.3 °F /  30.7 °C 60.1 °F /  15.6 °C 30 in /  1016.8 hPa SW 8.1 mph /  13.0 km/h 8.1 mph /  13.0 km/h 40 % 0 in /  0.0 mm
15:47 87.6 °F /  30.9 °C 60.3 °F /  15.7 °C 30 in /  1016.8 hPa SSW 8.1 mph /  13.0 km/h 8.1 mph /  13.0 km/h 40 % 0 in /  0.0 mm
15:52 86.9 °F /  30.5 °C 59.7 °F /  15.4 °C 30 in /  1016.8 hPa SSW 9.2 mph /  14.8 km/h 9.2 mph /  14.8 km/h 40 % 0 in /  0.0 mm
15:57 86.4 °F /  30.2 °C 59.2 °F /  15.1 °C 30 in /  1016.8 hPa South 4.6 mph /  7.4 km/h 4.6 mph /  7.4 km/h 40 % 0 in /  0.0 mm
16:02 86.4 °F /  30.2 °C 59.2 °F /  15.1 °C 30 in /  1016.8 hPa West 6.9 mph /  11.1 km/h 6.9 mph /  11.1 km/h 40 % 0 in /  0.0 mm
16:07 86.5 °F /  30.3 °C 59.4 °F /  15.2 °C 30 in /  1016.8 hPa WSW 9.2 mph /  14.8 km/h 9.2 mph /  14.8 km/h 40 % 0 in /  0.0 mm
16:12 86.7 °F /  30.4 °C 59.5 °F /  15.3 °C 30 in /  1016.8 hPa SW 7.4 mph /  11.9 km/h 7.4 mph /  11.9 km/h 40 % 0 in /  0.0 mm
16:17 86 °F /  30.0 °C 58.3 °F /  14.6 °C 30 in /  1016.8 hPa WSW 10.4 mph /  16.7 km/h 10.4 mph /  16.7 km/h 39 % 0 in /  0.0 mm
16:22 86 °F /  30.0 °C 58.3 °F /  14.6 °C 30 in /  1016.8 hPa SW 9.2 mph /  14.8 km/h 9.2 mph /  14.8 km/h 39 % 0 in /  0.0 mm
16:27 86.4 °F /  30.2 °C 58.5 °F /  14.7 °C 30 in /  1016.8 hPa West 9.2 mph /  14.8 km/h 9.2 mph /  14.8 km/h 39 % 0 in /  0.0 mm
16:32 86.4 °F /  30.2 °C 58.5 °F /  14.7 °C 30 in /  1016.8 hPa SW 9.2 mph /  14.8 km/h 9.2 mph /  14.8 km/h 39 % 0 in /  0.0 mm
16:37 86.2 °F /  30.1 °C 58.3 °F /  14.6 °C 30 in /  1016.8 hPa SW 6.9 mph /  11.1 km/h 6.9 mph /  11.1 km/h 39 % 0 in /  0.0 mm
16:42 85.5 °F /  29.7 °C 57.7 °F /  14.3 °C 30 in /  1016.8 hPa SSW 9.2 mph /  14.8 km/h 9.2 mph /  14.8 km/h 39 % 0 in /  0.0 mm
16:47 85.8 °F /  29.9 °C 57.9 °F /  14.4 °C 30 in /  1016.8 hPa SSW 8.1 mph /  13.0 km/h 8.1 mph /  13.0 km/h 39 % 0 in /  0.0 mm
16:52 86.4 °F /  30.2 °C 58.5 °F /  14.7 °C 30 in /  1016.8 hPa SW 6.9 mph /  11.1 km/h 6.9 mph /  11.1 km/h 39 % 0 in /  0.0 mm
16:57 86 °F /  30.0 °C 58.3 °F /  14.6 °C 30 in /  1016.8 hPa SW 5.9 mph /  9.5 km/h 5.9 mph /  9.5 km/h 39 % 0 in /  0.0 mm
16:59 86 °F /  30.0 °C 58.3 °F /  14.6 °C 30 in /  1015.8 hPa WNW 5.9 mph /  9.5 km/h 5.9 mph /  9.5 km/h 39 % 0 in /  0.0 mm
17:04 85.8 °F /  29.9 °C 57.9 °F /  14.4 °C 30 in /  1015.8 hPa SW 5.8 mph /  9.3 km/h 5.8 mph /  9.3 km/h 39 % 0 in /  0.0 mm
17:09 85.8 °F /  29.9 °C 57.9 °F /  14.4 °C 30 in /  1015.8 hPa WSW 6.9 mph /  11.1 km/h 6.9 mph /  11.1 km/h 39 % 0 in /  0.0 mm
17:14 85.3 °F /  29.6 °C 57.6 °F /  14.2 °C 30 in /  1015.8 hPa WSW 9.2 mph /  14.8 km/h 9.2 mph /  14.8 km/h 39 % 0 in /  0.0 mm
17:19 84.9 °F /  29.4 °C 57.9 °F /  14.4 °C 30 in /  1015.8 hPa SW 8.1 mph /  13.0 km/h 8.1 mph /  13.0 km/h 40 % 0 in /  0.0 mm
17:24 84.9 °F /  29.4 °C 57.9 °F /  14.4 °C 30 in /  1015.8 hPa SSW 6.9 mph /  11.1 km/h 6.9 mph /  11.1 km/h 40 % 0 in /  0.0 mm
17:29 85.1 °F /  29.5 °C 58.1 °F /  14.5 °C 30 in /  1015.8 hPa SW 9.2 mph /  14.8 km/h 9.2 mph /  14.8 km/h 40 % 0 in /  0.0 mm
17:34 85.3 °F /  29.6 °C 58.8 °F /  14.9 °C 30 in /  1015.8 hPa WSW 4.9 mph /  7.9 km/h 4.9 mph /  7.9 km/h 41 % 0 in /  0.0 mm
17:39 85.5 °F /  29.7 °C 59.2 °F /  15.1 °C 30 in /  1015.8 hPa SW 3.8 mph /  6.1 km/h 3.8 mph /  6.1 km/h 41 % 0 in /  0.0 mm
17:44 85.1 °F /  29.5 °C 58.8 °F /  14.9 °C 30 in /  1015.8 hPa SW 6.9 mph /  11.1 km/h 6.9 mph /  11.1 km/h 41 % 0 in /  0.0 mm
17:49 84.7 °F /  29.3 °C 58.5 °F /  14.7 °C 30 in /  1015.8 hPa WSW 4.6 mph /  7.4 km/h 4.6 mph /  7.4 km/h 41 % 0 in /  0.0 mm
17:54 84.7 °F /  29.3 °C 58.5 °F /  14.7 °C 30 in /  1015.8 hPa SW 8.1 mph /  13.0 km/h 8.1 mph /  13.0 km/h 41 % 0 in /  0.0 mm
17:59 84.4 °F /  29.1 °C 58.8 °F /  14.9 °C 30 in /  1015.8 hPa SW 4.3 mph /  6.9 km/h 4.3 mph /  6.9 km/h 42 % 0 in /  0.0 mm
18:04 84.6 °F /  29.2 °C 58.8 °F /  14.9 °C 30 in /  1015.8 hPa WSW 8.1 mph /  13.0 km/h 8.1 mph /  13.0 km/h 42 % 0 in /  0.0 mm
18:09 84.7 °F /  29.3 °C 59.2 °F /  15.1 °C 30 in /  1015.8 hPa SW 5.8 mph /  9.3 km/h 5.8 mph /  9.3 km/h 42 % 0 in /  0.0 mm
18:14 84.2 °F /  29.0 °C 58.6 °F /  14.8 °C 30 in /  1015.8 hPa South 5.8 mph /  9.3 km/h 5.8 mph /  9.3 km/h 42 % 0 in /  0.0 mm
18:19 83.5 °F /  28.6 °C 58.6 °F /  14.8 °C 30 in /  1015.8 hPa SW 9.2 mph /  14.8 km/h 9.2 mph /  14.8 km/h 43 % 0 in /  0.0 mm
18:24 83.5 °F /  28.6 °C 58.6 °F /  14.8 °C 30 in /  1015.8 hPa South 4.6 mph /  7.4 km/h 4.6 mph /  7.4 km/h 43 % 0 in /  0.0 mm
18:29 84 °F /  28.9 °C 59.2 °F /  15.1 °C 30 in /  1015.8 hPa WSW 7.4 mph /  11.9 km/h 7.4 mph /  11.9 km/h 43 % 0 in /  0.0 mm
18:34 83.5 °F /  28.6 °C 58.6 °F /  14.8 °C 30 in /  1015.8 hPa WSW 7.1 mph /  11.4 km/h 7.1 mph /  11.4 km/h 43 % 0 in /  0.0 mm
18:39 83.1 °F /  28.4 °C 58.8 °F /  14.9 °C 30 in /  1015.8 hPa SW 6.9 mph /  11.1 km/h 6.9 mph /  11.1 km/h 44 % 0 in /  0.0 mm
18:44 83.1 °F /  28.4 °C 58.8 °F /  14.9 °C 30 in /  1015.8 hPa SW 8.1 mph /  13.0 km/h 8.1 mph /  13.0 km/h 44 % 0 in /  0.0 mm
18:49 83.5 °F /  28.6 °C 59.4 °F /  15.2 °C 30 in /  1015.8 hPa SSW 3.6 mph /  5.8 km/h 3.6 mph /  5.8 km/h 44 % 0 in /  0.0 mm
18:54 82.6 °F /  28.1 °C 57.7 °F /  14.3 °C 30 in /  1015.8 hPa SSW 9.2 mph /  14.8 km/h 9.2 mph /  14.8 km/h 43 % 0 in /  0.0 mm
18:59 82.6 °F /  28.1 °C 57.7 °F /  14.3 °C 30 in /  1014.8 hPa SW 7.8 mph /  12.6 km/h 7.8 mph /  12.6 km/h 43 % 0 in /  0.0 mm
19:04 82 °F /  27.8 °C 57.9 °F /  14.4 °C 30 in /  1014.8 hPa SW 5.9 mph /  9.5 km/h 5.9 mph /  9.5 km/h 44 % 0 in /  0.0 mm
19:09 82.2 °F /  27.9 °C 58.1 °F /  14.5 °C 30 in /  1014.8 hPa SSW 3.5 mph /  5.6 km/h 3.5 mph /  5.6 km/h 44 % 0 in /  0.0 mm
19:14 82.2 °F /  27.9 °C 58.1 °F /  14.5 °C 30 in /  1015.8 hPa SW 5.9 mph /  9.5 km/h 5.9 mph /  9.5 km/h 44 % 0 in /  0.0 mm
19:15 71.1 °F /  21.7 °C 60.1 °F /  15.6 °C 30.1 in /  1017.8 hPa Calm     68 % 0 in /  0.0 mm
19:19 81.7 °F /  27.6 °C 57.6 °F /  14.2 °C 30 in /  1015.8 hPa WSW 5.9 mph /  9.5 km/h 5.9 mph /  9.5 km/h 44 % 0 in /  0.0 mm
19:24 81.7 °F /  27.6 °C 57.6 °F /  14.2 °C 30 in /  1015.8 hPa SSW 4.6 mph /  7.4 km/h 4.6 mph /  7.4 km/h 44 % 0 in /  0.0 mm
19:25 70.9 °F /  21.6 °C 59.7 °F /  15.4 °C 30.1 in /  1017.8 hPa WSW 1 mph /  1.6 km/h 2 mph /  3.2 km/h 68 % 0 in /  0.0 mm
19:29 81.5 °F /  27.5 °C 58.1 °F /  14.5 °C 30 in /  1015.8 hPa WSW 3.5 mph /  5.6 km/h 3.5 mph /  5.6 km/h 45 % 0 in /  0.0 mm
19:34 81.1 °F /  27.3 °C 57.7 °F /  14.3 °C 30 in /  1015.8 hPa SW 5.8 mph /  9.3 km/h 5.8 mph /  9.3 km/h 45 % 0 in /  0.0 mm
19:35 70.9 °F /  21.6 °C 60.3 °F /  15.7 °C 30.1 in /  1017.8 hPa Calm   2 mph /  3.2 km/h 69 % 0 in /  0.0 mm
19:39 80.6 °F /  27.0 °C 57.4 °F /  14.1 °C 30 in /  1015.8 hPa South 8.1 mph /  13.0 km/h 8.1 mph /  13.0 km/h 45 % 0 in /  0.0 mm
19:44 80.6 °F /  27.0 °C 57.4 °F /  14.1 °C 30 in /  1015.8 hPa SSE 7.1 mph /  11.4 km/h 7.1 mph /  11.4 km/h 45 % 0 in /  0.0 mm
19:45 70.5 °F /  21.4 °C 59.9 °F /  15.5 °C 30.1 in /  1017.8 hPa WSW 1 mph /  1.6 km/h 2 mph /  3.2 km/h 69 % 0 in /  0.0 mm
19:49 80.1 °F /  26.7 °C 57.4 °F /  14.1 °C 30 in /  1015.8 hPa SW 8.1 mph /  13.0 km/h 8.1 mph /  13.0 km/h 46 % 0 in /  0.0 mm
19:54 79.9 °F /  26.6 °C 57.4 °F /  14.1 °C 30 in /  1015.8 hPa SW 6.4 mph /  10.3 km/h 6.4 mph /  10.3 km/h 46 % 0 in /  0.0 mm
19:55 70.2 °F /  21.2 °C 59.5 °F /  15.3 °C 30.1 in /  1017.8 hPa Calm   1 mph /  1.6 km/h 69 % 0 in /  0.0 mm
19:59 79.3 °F /  26.3 °C 57.4 °F /  14.1 °C 30 in /  1015.8 hPa SSW 3.5 mph /  5.6 km/h 3.5 mph /  5.6 km/h 47 % 0 in /  0.0 mm
20:04 79.2 °F /  26.2 °C 57.2 °F /  14.0 °C 30 in /  1015.8 hPa WSW 5.8 mph /  9.3 km/h 5.8 mph /  9.3 km/h 47 % 0 in /  0.0 mm
20:05 70 °F /  21.1 °C 59.7 °F /  15.4 °C 30.1 in /  1017.8 hPa Calm     70 % 0 in /  0.0 mm
20:09 78.8 °F /  26.0 °C 57.4 °F /  14.1 °C 30 in /  1015.8 hPa SSW 5.8 mph /  9.3 km/h 5.8 mph /  9.3 km/h 48 % 0 in /  0.0 mm
20:14 78.6 °F /  25.9 °C 57.4 °F /  14.1 °C 30 in /  1015.8 hPa WSW 4.6 mph /  7.4 km/h 4.6 mph /  7.4 km/h 48 % 0 in /  0.0 mm
20:15 78.6 °F /  25.9 °C 57.4 °F /  14.1 °C 30 in /  1015.8 hPa SW 2.9 mph /  4.7 km/h 2.9 mph /  4.7 km/h 48 % 0 in /  0.0 mm
20:20 78.3 °F /  25.7 °C 57 °F /  13.9 °C 30 in /  1015.8 hPa SW 3.5 mph /  5.6 km/h 3.5 mph /  5.6 km/h 48 % 0 in /  0.0 mm
20:25 78.1 °F /  25.6 °C 56.8 °F /  13.8 °C 30 in /  1015.8 hPa SSW 4.6 mph /  7.4 km/h 4.6 mph /  7.4 km/h 48 % 0 in /  0.0 mm
20:30 77.9 °F /  25.5 °C 57.2 °F /  14.0 °C 30 in /  1014.8 hPa South 3.5 mph /  5.6 km/h 3.5 mph /  5.6 km/h 49 % 0 in /  0.0 mm
20:35 77.5 °F /  25.3 °C 56.8 °F /  13.8 °C 30 in /  1014.8 hPa SW 3.5 mph /  5.6 km/h 3.5 mph /  5.6 km/h 49 % 0 in /  0.0 mm
20:40 77.4 °F /  25.2 °C 56.7 °F /  13.7 °C 30 in /  1014.8 hPa SSW 4.6 mph /  7.4 km/h 4.6 mph /  7.4 km/h 49 % 0 in /  0.0 mm
20:45 77 °F /  25.0 °C 56.5 °F /  13.6 °C 30 in /  1014.8 hPa SW 3.5 mph /  5.6 km/h 3.5 mph /  5.6 km/h 49 % 0 in /  0.0 mm
20:50 76.6 °F /  24.8 °C 56.7 °F /  13.7 °C 30 in /  1014.8 hPa SW 4.6 mph /  7.4 km/h 4.6 mph /  7.4 km/h 50 % 0 in /  0.0 mm
20:55 76.3 °F /  24.6 °C 56.8 °F /  13.8 °C 30 in /  1014.8 hPa WSW 3.5 mph /  5.6 km/h 3.5 mph /  5.6 km/h 51 % 0 in /  0.0 mm
21:00 76.1 °F /  24.5 °C 56.7 °F /  13.7 °C 30 in /  1015.8 hPa SW 4.6 mph /  7.4 km/h 4.6 mph /  7.4 km/h 51 % 0 in /  0.0 mm
21:05 75.9 °F /  24.4 °C 57 °F /  13.9 °C 30 in /  1015.8 hPa SW 4.6 mph /  7.4 km/h 4.6 mph /  7.4 km/h 52 % 0 in /  0.0 mm
21:10 75.7 °F /  24.3 °C 56.8 °F /  13.8 °C 30 in /  1015.8 hPa SW 3.8 mph /  6.1 km/h 3.8 mph /  6.1 km/h 52 % 0 in /  0.0 mm
21:15 75.4 °F /  24.1 °C 57 °F /  13.9 °C 30 in /  1015.8 hPa SW 5.6 mph /  9.0 km/h 5.6 mph /  9.0 km/h 53 % 0 in /  0.0 mm
21:20 75 °F /  23.9 °C 57.2 °F /  14.0 °C 30 in /  1015.8 hPa SSW 3.5 mph /  5.6 km/h 3.5 mph /  5.6 km/h 54 % 0 in /  0.0 mm
21:25 74.8 °F /  23.8 °C 57.6 °F /  14.2 °C 30 in /  1015.8 hPa West 3.5 mph /  5.6 km/h 3.5 mph /  5.6 km/h 55 % 0 in /  0.0 mm
21:30 74.7 °F /  23.7 °C 57.4 °F /  14.1 °C 30 in /  1015.8 hPa WSW 2.3 mph /  3.7 km/h 2.3 mph /  3.7 km/h 55 % 0 in /  0.0 mm
21:35 74.5 °F /  23.6 °C 57.7 °F /  14.3 °C 30 in /  1015.8 hPa WSW 2.3 mph /  3.7 km/h 2.3 mph /  3.7 km/h 56 % 0 in /  0.0 mm
21:40 74.1 °F /  23.4 °C 57.4 °F /  14.1 °C 30 in /  1015.8 hPa WSW 2.4 mph /  3.9 km/h 2.4 mph /  3.9 km/h 56 % 0 in /  0.0 mm
21:45 73.9 °F /  23.3 °C 57.7 °F /  14.3 °C 30 in /  1016.8 hPa WSW 2.6 mph /  4.2 km/h 2.6 mph /  4.2 km/h 57 % 0 in /  0.0 mm
21:50 73.6 °F /  23.1 °C 57.4 °F /  14.1 °C 30 in /  1016.8 hPa SW 4.6 mph /  7.4 km/h 4.6 mph /  7.4 km/h 57 % 0 in /  0.0 mm
21:51 73.6 °F /  23.1 °C 57.4 °F /  14.1 °C 30 in /  1016.8 hPa SW 2.3 mph /  3.7 km/h 2.3 mph /  3.7 km/h 57 % 0 in /  0.0 mm
21:55 67.6 °F /  19.8 °C 59.7 °F /  15.4 °C 30.1 in /  1017.8 hPa Calm   2 mph /  3.2 km/h 76 % 0 in /  0.0 mm
21:56 73.2 °F /  22.9 °C 57.6 °F /  14.2 °C 30 in /  1016.8 hPa WSW 3.5 mph /  5.6 km/h 3.5 mph /  5.6 km/h 58 % 0 in /  0.0 mm
22:01 73.2 °F /  22.9 °C 57.9 °F /  14.4 °C 30 in /  1016.8 hPa WSW 3.5 mph /  5.6 km/h 3.5 mph /  5.6 km/h 59 % 0 in /  0.0 mm
22:05 67.3 °F /  19.6 °C 59.5 °F /  15.3 °C 30.1 in /  1017.8 hPa Calm     76 % 0 in /  0.0 mm
22:06 73 °F /  22.8 °C 57.9 °F /  14.4 °C 30 in /  1016.8 hPa WSW 3.5 mph /  5.6 km/h 3.5 mph /  5.6 km/h 59 % 0 in /  0.0 mm
22:11 72.9 °F /  22.7 °C 58.3 °F /  14.6 °C 30 in /  1016.8 hPa SSW 3.5 mph /  5.6 km/h 3.5 mph /  5.6 km/h 60 % 0 in /  0.0 mm
22:15 67.1 °F /  19.5 °C 59.5 °F /  15.3 °C 30.1 in /  1017.8 hPa Calm     77 % 0 in /  0.0 mm
22:16 72.7 °F /  22.6 °C 57.9 °F /  14.4 °C 30.1 in /  1017.8 hPa WSW 2.9 mph /  4.7 km/h 2.9 mph /  4.7 km/h 60 % 0 in /  0.0 mm
22:21 72.7 °F /  22.6 °C 58.5 °F /  14.7 °C 30.1 in /  1017.8 hPa WSW 2.6 mph /  4.2 km/h 2.6 mph /  4.2 km/h 61 % 0 in /  0.0 mm
22:25 66.9 °F /  19.4 °C 59.5 °F /  15.3 °C 30.1 in /  1017.8 hPa Calm     77 % 0 in /  0.0 mm
22:26 72.7 °F /  22.6 °C 58.5 °F /  14.7 °C 30.1 in /  1017.8 hPa SW 4.6 mph /  7.4 km/h 4.6 mph /  7.4 km/h 61 % 0 in /  0.0 mm
22:31 72.5 °F /  22.5 °C 58.6 °F /  14.8 °C 30.1 in /  1017.8 hPa SW 4.6 mph /  7.4 km/h 4.6 mph /  7.4 km/h 62 % 0 in /  0.0 mm
22:35 66.9 °F /  19.4 °C 59.5 °F /  15.3 °C 30 in /  1016.8 hPa NE 1 mph /  1.6 km/h 2 mph /  3.2 km/h 77 % 0 in /  0.0 mm
22:36 72.5 °F /  22.5 °C 59.2 °F /  15.1 °C 30.1 in /  1017.8 hPa SW 2.4 mph /  3.9 km/h 2.4 mph /  3.9 km/h 63 % 0 in /  0.0 mm
22:41 72.3 °F /  22.4 °C 59 °F /  15.0 °C 30.1 in /  1017.8 hPa SW 2.6 mph /  4.2 km/h 2.6 mph /  4.2 km/h 63 % 0 in /  0.0 mm
22:45 66.7 °F /  19.3 °C 59.4 °F /  15.2 °C 30 in /  1016.8 hPa Calm   1 mph /  1.6 km/h 77 % 0 in /  0.0 mm
22:46 72.1 °F /  22.3 °C 59.4 °F /  15.2 °C 30.1 in /  1017.8 hPa WSW 2.3 mph /  3.7 km/h 2.3 mph /  3.7 km/h 64 % 0 in /  0.0 mm
22:51 72.1 °F /  22.3 °C 59.4 °F /  15.2 °C 30.1 in /  1017.8 hPa SSW 3.5 mph /  5.6 km/h 3.5 mph /  5.6 km/h 64 % 0 in /  0.0 mm
22:55 66.9 °F /  19.4 °C 59.5 °F /  15.3 °C 30 in /  1016.8 hPa Calm     77 % 0 in /  0.0 mm
22:56 72 °F /  22.2 °C 59.2 °F /  15.1 °C 30.1 in /  1017.8 hPa WSW 2.6 mph /  4.2 km/h 2.6 mph /  4.2 km/h 64 % 0 in /  0.0 mm
23:01 71.8 °F /  22.1 °C 58.8 °F /  14.9 °C 30 in /  1016.8 hPa SW 3.5 mph /  5.6 km/h 3.5 mph /  5.6 km/h 64 % 0 in /  0.0 mm
23:05 66.7 °F /  19.3 °C 59.4 °F /  15.2 °C 30 in /  1016.8 hPa Calm     77 % 0 in /  0.0 mm
23:06 71.8 °F /  22.1 °C 59.4 °F /  15.2 °C 30 in /  1016.8 hPa SW 2.3 mph /  3.7 km/h 2.3 mph /  3.7 km/h 65 % 0 in /  0.0 mm
23:11 71.6 °F /  22.0 °C 59.2 °F /  15.1 °C 30 in /  1016.8 hPa SSW 2.3 mph /  3.7 km/h 2.3 mph /  3.7 km/h 65 % 0 in /  0.0 mm
23:15 66.6 °F /  19.2 °C 59.5 °F /  15.3 °C 30 in /  1016.8 hPa Calm     78 % 0 in /  0.0 mm
23:16 71.4 °F /  21.9 °C 59.5 °F /  15.3 °C 30.1 in /  1017.8 hPa SW 2.3 mph /  3.7 km/h 2.3 mph /  3.7 km/h 66 % 0 in /  0.0 mm
23:21 71.4 °F /  21.9 °C 59.5 °F /  15.3 °C 30.1 in /  1017.8 hPa WSW 2.3 mph /  3.7 km/h 2.3 mph /  3.7 km/h 66 % 0 in /  0.0 mm
23:25 66.2 °F /  19.0 °C 59.2 °F /  15.1 °C 30 in /  1016.8 hPa Calm   2 mph /  3.2 km/h 78 % 0 in /  0.0 mm
23:26 71.2 °F /  21.8 °C 59.7 °F /  15.4 °C 30.1 in /  1017.8 hPa SW 1.4 mph /  2.3 km/h 1.4 mph /  2.3 km/h 67 % 0 in /  0.0 mm
23:31 71.1 °F /  21.7 °C 59.5 °F /  15.3 °C 30.1 in /  1017.8 hPa SW 2.3 mph /  3.7 km/h 2.3 mph /  3.7 km/h 67 % 0 in /  0.0 mm
23:35 66 °F /  18.9 °C 59.7 °F /  15.4 °C 30 in /  1016.8 hPa Calm     80 % 0 in /  0.0 mm
23:36 71.1 °F /  21.7 °C 59.5 °F /  15.3 °C 30.1 in /  1017.8 hPa SW 1.2 mph /  1.9 km/h 1.2 mph /  1.9 km/h 67 % 0 in /  0.0 mm
23:41 71.1 °F /  21.7 °C 59.5 °F /  15.3 °C 30.1 in /  1017.8 hPa SW 2.4 mph /  3.9 km/h 2.4 mph /  3.9 km/h 67 % 0 in /  0.0 mm
23:45 65.8 °F /  18.8 °C 59.5 °F /  15.3 °C 30 in /  1016.8 hPa SW 1 mph /  1.6 km/h 1 mph /  1.6 km/h 80 % 0 in /  0.0 mm
23:46 71.1 °F /  21.7 °C 59.5 °F /  15.3 °C 30.1 in /  1017.8 hPa West 2.3 mph /  3.7 km/h 2.3 mph /  3.7 km/h 67 % 0 in /  0.0 mm
23:51 71.1 °F /  21.7 °C 59.5 °F /  15.3 °C 30.1 in /  1017.8 hPa WSW 2 mph /  3.2 km/h 2 mph /  3.2 km/h 67 % 0 in /  0.0 mm
23:55 65.8 °F /  18.8 °C 59.5 °F /  15.3 °C 30 in /  1015.8 hPa Calm   1 mph /  1.6 km/h 80 % 0 in /  0.0 mm
23:56 71.1 °F /  21.7 °C 59.5 °F /  15.3 °C 30.1 in /  1017.8 hPa West 2.3 mph /  3.7 km/h 2.3 mph /  3.7 km/h 67 % 0 in /  0.0 mm
Meteo Sesrovires
Elogis d' Weather Underground - 3.75 mb

Guio original per  Jim McMurry - jmcmurry@mwt.net Adaptat per a la plantilla per  Wim van der Kuil - Leuven-Template.eu

Trobareu la nostra informacio del temps tambe a:

Weather Underground

AWEKAS